sensor_id;sensor_type;location;lat;lon;timestamp;temperature;humidity
42031;DHT22;27709;52.036;5.906;2023-04-25T00:02:10;7.80;99.90
42031;DHT22;27709;52.036;5.906;2023-04-25T00:04:35;7.80;99.90
42031;DHT22;27709;52.036;5.906;2023-04-25T00:07:03;7.70;99.90
42031;DHT22;27709;52.036;5.906;2023-04-25T00:09:28;7.60;99.90
42031;DHT22;27709;52.036;5.906;2023-04-25T00:11:54;7.50;99.90
42031;DHT22;27709;52.036;5.906;2023-04-25T00:14:19;7.40;99.90
42031;DHT22;27709;52.036;5.906;2023-04-25T00:16:45;7.40;99.90
42031;DHT22;27709;52.036;5.906;2023-04-25T00:19:10;7.40;99.90
42031;DHT22;27709;52.036;5.906;2023-04-25T00:21:36;7.40;99.90
42031;DHT22;27709;52.036;5.906;2023-04-25T00:24:06;7.40;99.90
42031;DHT22;27709;52.036;5.906;2023-04-25T00:26:31;7.30;99.90
42031;DHT22;27709;52.036;5.906;2023-04-25T00:28:57;7.30;99.90
42031;DHT22;27709;52.036;5.906;2023-04-25T00:31:22;7.30;99.90
42031;DHT22;27709;52.036;5.906;2023-04-25T00:33:48;7.30;99.90
42031;DHT22;27709;52.036;5.906;2023-04-25T00:36:13;7.20;99.90
42031;DHT22;27709;52.036;5.906;2023-04-25T00:38:39;7.20;99.90
42031;DHT22;27709;52.036;5.906;2023-04-25T00:41:08;7.20;99.90
42031;DHT22;27709;52.036;5.906;2023-04-25T00:43:33;7.20;99.90
42031;DHT22;27709;52.036;5.906;2023-04-25T00:46:00;7.20;99.90
42031;DHT22;27709;52.036;5.906;2023-04-25T00:48:25;7.10;99.90
42031;DHT22;27709;52.036;5.906;2023-04-25T00:51:00;7.10;99.90
42031;DHT22;27709;52.036;5.906;2023-04-25T00:53:26;7.00;99.90
42031;DHT22;27709;52.036;5.906;2023-04-25T00:55:52;6.90;99.90
42031;DHT22;27709;52.036;5.906;2023-04-25T00:58:18;6.80;99.90
42031;DHT22;27709;52.036;5.906;2023-04-25T01:00:44;6.80;99.90
42031;DHT22;27709;52.036;5.906;2023-04-25T01:03:11;6.70;99.90
42031;DHT22;27709;52.036;5.906;2023-04-25T01:05:36;6.70;99.90
42031;DHT22;27709;52.036;5.906;2023-04-25T01:08:02;6.70;99.90
42031;DHT22;27709;52.036;5.906;2023-04-25T01:10:27;6.70;99.90
42031;DHT22;27709;52.036;5.906;2023-04-25T01:12:53;6.60;99.90
42031;DHT22;27709;52.036;5.906;2023-04-25T01:15:18;6.50;99.90
42031;DHT22;27709;52.036;5.906;2023-04-25T01:17:44;6.50;99.90
42031;DHT22;27709;52.036;5.906;2023-04-25T01:20:10;6.50;99.90
42031;DHT22;27709;52.036;5.906;2023-04-25T01:22:36;6.40;99.90
42031;DHT22;27709;52.036;5.906;2023-04-25T01:25:01;6.30;99.90
42031;DHT22;27709;52.036;5.906;2023-04-25T01:27:27;6.40;99.90
42031;DHT22;27709;52.036;5.906;2023-04-25T01:29:53;6.40;99.90
42031;DHT22;27709;52.036;5.906;2023-04-25T01:32:19;6.40;99.90
42031;DHT22;27709;52.036;5.906;2023-04-25T01:34:45;6.50;99.90
42031;DHT22;27709;52.036;5.906;2023-04-25T01:37:11;6.40;99.90
42031;DHT22;27709;52.036;5.906;2023-04-25T01:39:36;6.50;99.90
42031;DHT22;27709;52.036;5.906;2023-04-25T01:42:01;6.50;99.90
42031;DHT22;27709;52.036;5.906;2023-04-25T01:44:27;6.60;99.90
42031;DHT22;27709;52.036;5.906;2023-04-25T01:46:53;6.60;99.90
42031;DHT22;27709;52.036;5.906;2023-04-25T01:49:18;6.70;99.90
42031;DHT22;27709;52.036;5.906;2023-04-25T01:51:44;6.80;99.90
42031;DHT22;27709;52.036;5.906;2023-04-25T01:54:09;6.80;99.90
42031;DHT22;27709;52.036;5.906;2023-04-25T01:56:36;6.80;99.90
42031;DHT22;27709;52.036;5.906;2023-04-25T01:59:02;6.90;99.90
42031;DHT22;27709;52.036;5.906;2023-04-25T02:01:28;6.90;99.90
42031;DHT22;27709;52.036;5.906;2023-04-25T02:03:53;6.90;99.90
42031;DHT22;27709;52.036;5.906;2023-04-25T02:06:19;6.90;99.90
42031;DHT22;27709;52.036;5.906;2023-04-25T02:08:44;7.00;99.90
42031;DHT22;27709;52.036;5.906;2023-04-25T02:11:10;7.00;99.90
42031;DHT22;27709;52.036;5.906;2023-04-25T02:13:35;7.00;99.90
42031;DHT22;27709;52.036;5.906;2023-04-25T02:16:01;7.00;99.90
42031;DHT22;27709;52.036;5.906;2023-04-25T02:18:27;7.00;99.90
42031;DHT22;27709;52.036;5.906;2023-04-25T02:20:52;6.90;99.90
42031;DHT22;27709;52.036;5.906;2023-04-25T02:23:18;6.90;99.90
42031;DHT22;27709;52.036;5.906;2023-04-25T02:25:44;6.80;99.90
42031;DHT22;27709;52.036;5.906;2023-04-25T02:28:10;6.80;99.90
42031;DHT22;27709;52.036;5.906;2023-04-25T02:30:35;6.70;99.90
42031;DHT22;27709;52.036;5.906;2023-04-25T02:33:01;6.80;99.90
42031;DHT22;27709;52.036;5.906;2023-04-25T02:35:26;6.80;99.90
42031;DHT22;27709;52.036;5.906;2023-04-25T02:37:52;6.90;99.90
42031;DHT22;27709;52.036;5.906;2023-04-25T02:40:17;6.90;99.90
42031;DHT22;27709;52.036;5.906;2023-04-25T02:42:42;6.90;99.90
42031;DHT22;27709;52.036;5.906;2023-04-25T02:45:10;6.90;99.90
42031;DHT22;27709;52.036;5.906;2023-04-25T02:47:35;6.90;99.90
42031;DHT22;27709;52.036;5.906;2023-04-25T02:50:01;6.90;99.90
42031;DHT22;27709;52.036;5.906;2023-04-25T02:52:26;6.80;99.90
42031;DHT22;27709;52.036;5.906;2023-04-25T02:54:52;6.80;99.90
42031;DHT22;27709;52.036;5.906;2023-04-25T02:57:17;6.70;99.90
42031;DHT22;27709;52.036;5.906;2023-04-25T02:59:43;6.60;99.90
42031;DHT22;27709;52.036;5.906;2023-04-25T03:02:09;6.50;99.90
42031;DHT22;27709;52.036;5.906;2023-04-25T03:04:34;6.50;99.90
42031;DHT22;27709;52.036;5.906;2023-04-25T03:07:00;6.40;99.90
42031;DHT22;27709;52.036;5.906;2023-04-25T03:09:26;6.30;99.90
42031;DHT22;27709;52.036;5.906;2023-04-25T03:11:51;6.30;99.90
42031;DHT22;27709;52.036;5.906;2023-04-25T03:14:17;6.20;99.90
42031;DHT22;27709;52.036;5.906;2023-04-25T03:16:42;6.20;99.90
42031;DHT22;27709;52.036;5.906;2023-04-25T03:19:08;6.10;99.90
42031;DHT22;27709;52.036;5.906;2023-04-25T03:21:34;6.10;99.90
42031;DHT22;27709;52.036;5.906;2023-04-25T03:24:00;6.00;99.90
42031;DHT22;27709;52.036;5.906;2023-04-25T03:26:26;6.00;99.90
42031;DHT22;27709;52.036;5.906;2023-04-25T03:28:51;5.90;99.90
42031;DHT22;27709;52.036;5.906;2023-04-25T03:31:17;5.90;99.90
42031;DHT22;27709;52.036;5.906;2023-04-25T03:33:42;5.80;99.90
42031;DHT22;27709;52.036;5.906;2023-04-25T03:36:08;5.70;99.90
42031;DHT22;27709;52.036;5.906;2023-04-25T03:38:33;5.60;99.90
42031;DHT22;27709;52.036;5.906;2023-04-25T03:40:58;5.50;99.90
42031;DHT22;27709;52.036;5.906;2023-04-25T03:43:24;5.40;99.90
42031;DHT22;27709;52.036;5.906;2023-04-25T03:45:50;5.40;99.90
42031;DHT22;27709;52.036;5.906;2023-04-25T03:48:15;5.30;99.90
42031;DHT22;27709;52.036;5.906;2023-04-25T03:50:41;5.30;99.90
42031;DHT22;27709;52.036;5.906;2023-04-25T03:53:06;5.30;99.90
42031;DHT22;27709;52.036;5.906;2023-04-25T03:55:32;5.30;99.90
42031;DHT22;27709;52.036;5.906;2023-04-25T03:57:57;5.30;99.90
42031;DHT22;27709;52.036;5.906;2023-04-25T04:00:23;5.30;99.90
42031;DHT22;27709;52.036;5.906;2023-04-25T04:02:49;5.30;99.90
42031;DHT22;27709;52.036;5.906;2023-04-25T04:05:14;5.30;99.90
42031;DHT22;27709;52.036;5.906;2023-04-25T04:07:40;5.20;99.90
42031;DHT22;27709;52.036;5.906;2023-04-25T04:10:08;5.10;99.90
42031;DHT22;27709;52.036;5.906;2023-04-25T04:12:34;5.20;99.90
42031;DHT22;27709;52.036;5.906;2023-04-25T04:14:59;5.20;99.90
42031;DHT22;27709;52.036;5.906;2023-04-25T04:17:25;5.20;99.90
42031;DHT22;27709;52.036;5.906;2023-04-25T04:19:50;5.20;99.90
42031;DHT22;27709;52.036;5.906;2023-04-25T04:22:16;5.20;99.90
42031;DHT22;27709;52.036;5.906;2023-04-25T04:24:41;5.20;99.90
42031;DHT22;27709;52.036;5.906;2023-04-25T04:27:09;5.20;99.90
42031;DHT22;27709;52.036;5.906;2023-04-25T04:29:34;5.20;99.90
42031;DHT22;27709;52.036;5.906;2023-04-25T04:32:01;5.30;99.90
42031;DHT22;27709;52.036;5.906;2023-04-25T04:34:27;5.30;99.90
42031;DHT22;27709;52.036;5.906;2023-04-25T04:36:52;5.40;99.90
42031;DHT22;27709;52.036;5.906;2023-04-25T04:39:18;5.60;99.90
42031;DHT22;27709;52.036;5.906;2023-04-25T04:41:43;5.70;99.90
42031;DHT22;27709;52.036;5.906;2023-04-25T04:44:09;5.80;99.90
42031;DHT22;27709;52.036;5.906;2023-04-25T04:46:35;5.90;99.90
42031;DHT22;27709;52.036;5.906;2023-04-25T04:49:05;5.90;99.90
42031;DHT22;27709;52.036;5.906;2023-04-25T04:51:31;5.90;99.90
42031;DHT22;27709;52.036;5.906;2023-04-25T04:53:57;5.90;99.90
42031;DHT22;27709;52.036;5.906;2023-04-25T04:56:24;5.80;99.90
42031;DHT22;27709;52.036;5.906;2023-04-25T04:58:50;5.80;99.90
42031;DHT22;27709;52.036;5.906;2023-04-25T05:01:16;5.70;99.90
42031;DHT22;27709;52.036;5.906;2023-04-25T05:03:41;5.70;99.90
42031;DHT22;27709;52.036;5.906;2023-04-25T05:06:07;5.70;99.90
42031;DHT22;27709;52.036;5.906;2023-04-25T05:08:34;5.80;99.90
42031;DHT22;27709;52.036;5.906;2023-04-25T05:10:59;5.80;99.90
42031;DHT22;27709;52.036;5.906;2023-04-25T05:13:25;5.90;99.90
42031;DHT22;27709;52.036;5.906;2023-04-25T05:15:50;5.90;99.90
42031;DHT22;27709;52.036;5.906;2023-04-25T05:18:15;6.00;99.90
42031;DHT22;27709;52.036;5.906;2023-04-25T05:20:41;6.00;99.90
42031;DHT22;27709;52.036;5.906;2023-04-25T05:23:06;6.10;99.90
42031;DHT22;27709;52.036;5.906;2023-04-25T05:25:32;6.20;99.90
42031;DHT22;27709;52.036;5.906;2023-04-25T05:27:57;6.30;99.90
42031;DHT22;27709;52.036;5.906;2023-04-25T05:30:23;6.40;99.90
42031;DHT22;27709;52.036;5.906;2023-04-25T05:32:49;6.50;99.90
42031;DHT22;27709;52.036;5.906;2023-04-25T05:35:14;6.50;99.90
42031;DHT22;27709;52.036;5.906;2023-04-25T05:37:40;6.60;99.90
42031;DHT22;27709;52.036;5.906;2023-04-25T05:40:06;6.60;99.90
42031;DHT22;27709;52.036;5.906;2023-04-25T05:42:32;6.60;99.90
42031;DHT22;27709;52.036;5.906;2023-04-25T05:44:57;6.60;99.90
42031;DHT22;27709;52.036;5.906;2023-04-25T05:47:24;6.60;99.90
42031;DHT22;27709;52.036;5.906;2023-04-25T05:49:49;6.60;99.90
42031;DHT22;27709;52.036;5.906;2023-04-25T05:52:15;6.50;99.90
42031;DHT22;27709;52.036;5.906;2023-04-25T05:54:40;6.50;99.90
42031;DHT22;27709;52.036;5.906;2023-04-25T05:57:06;6.50;99.90
42031;DHT22;27709;52.036;5.906;2023-04-25T05:59:31;6.50;99.90
42031;DHT22;27709;52.036;5.906;2023-04-25T06:01:57;6.60;99.90
42031;DHT22;27709;52.036;5.906;2023-04-25T06:04:22;6.70;99.90
42031;DHT22;27709;52.036;5.906;2023-04-25T06:06:48;6.90;99.90
42031;DHT22;27709;52.036;5.906;2023-04-25T06:09:13;7.10;99.90
42031;DHT22;27709;52.036;5.906;2023-04-25T06:11:38;7.30;99.90
42031;DHT22;27709;52.036;5.906;2023-04-25T06:14:04;7.50;99.90
42031;DHT22;27709;52.036;5.906;2023-04-25T06:16:29;7.60;99.90
42031;DHT22;27709;52.036;5.906;2023-04-25T06:18:55;7.80;99.90
42031;DHT22;27709;52.036;5.906;2023-04-25T06:21:20;8.10;99.90
42031;DHT22;27709;52.036;5.906;2023-04-25T06:23:46;8.50;99.90
42031;DHT22;27709;52.036;5.906;2023-04-25T06:26:11;8.70;99.90
42031;DHT22;27709;52.036;5.906;2023-04-25T06:28:37;8.90;99.90
42031;DHT22;27709;52.036;5.906;2023-04-25T06:31:02;9.00;99.90
42031;DHT22;27709;52.036;5.906;2023-04-25T06:33:28;9.10;99.90
42031;DHT22;27709;52.036;5.906;2023-04-25T06:35:53;9.20;99.90
42031;DHT22;27709;52.036;5.906;2023-04-25T06:38:19;9.20;99.90
42031;DHT22;27709;52.036;5.906;2023-04-25T06:40:44;9.30;99.90
42031;DHT22;27709;52.036;5.906;2023-04-25T06:43:10;9.40;99.90
42031;DHT22;27709;52.036;5.906;2023-04-25T06:45:35;9.50;99.90
42031;DHT22;27709;52.036;5.906;2023-04-25T06:48:01;9.60;99.90
42031;DHT22;27709;52.036;5.906;2023-04-25T06:50:26;9.70;99.90
42031;DHT22;27709;52.036;5.906;2023-04-25T06:52:52;9.60;99.90
42031;DHT22;27709;52.036;5.906;2023-04-25T06:55:17;9.70;99.90
42031;DHT22;27709;52.036;5.906;2023-04-25T06:57:43;9.70;99.90
42031;DHT22;27709;52.036;5.906;2023-04-25T07:00:08;9.80;99.90
42031;DHT22;27709;52.036;5.906;2023-04-25T07:02:34;9.90;99.90
42031;DHT22;27709;52.036;5.906;2023-04-25T07:05:00;9.80;99.90
42031;DHT22;27709;52.036;5.906;2023-04-25T07:07:26;10.00;99.90
42031;DHT22;27709;52.036;5.906;2023-04-25T07:09:51;10.20;99.90
42031;DHT22;27709;52.036;5.906;2023-04-25T07:12:17;10.80;99.90
42031;DHT22;27709;52.036;5.906;2023-04-25T07:14:42;11.60;99.90
42031;DHT22;27709;52.036;5.906;2023-04-25T07:17:08;12.50;99.90
42031;DHT22;27709;52.036;5.906;2023-04-25T07:19:33;13.30;99.90
42031;DHT22;27709;52.036;5.906;2023-04-25T07:21:59;14.00;99.90
42031;DHT22;27709;52.036;5.906;2023-04-25T07:24:25;14.70;99.90
42031;DHT22;27709;52.036;5.906;2023-04-25T07:26:51;15.30;99.90
42031;DHT22;27709;52.036;5.906;2023-04-25T07:29:16;15.70;99.90
42031;DHT22;27709;52.036;5.906;2023-04-25T07:31:42;16.30;99.90
42031;DHT22;27709;52.036;5.906;2023-04-25T07:34:07;16.60;99.30
42031;DHT22;27709;52.036;5.906;2023-04-25T07:36:33;16.50;98.60
42031;DHT22;27709;52.036;5.906;2023-04-25T07:38:58;16.10;98.40
42031;DHT22;27709;52.036;5.906;2023-04-25T07:41:23;15.60;99.20
42031;DHT22;27709;52.036;5.906;2023-04-25T07:43:49;15.00;98.80
42031;DHT22;27709;52.036;5.906;2023-04-25T07:46:14;14.50;98.60
42031;DHT22;27709;52.036;5.906;2023-04-25T07:48:40;14.00;99.70
42031;DHT22;27709;52.036;5.906;2023-04-25T07:51:05;13.60;99.90
42031;DHT22;27709;52.036;5.906;2023-04-25T07:53:32;13.30;99.90
42031;DHT22;27709;52.036;5.906;2023-04-25T07:55:59;13.30;99.90
42031;DHT22;27709;52.036;5.906;2023-04-25T07:58:25;13.20;99.90
42031;DHT22;27709;52.036;5.906;2023-04-25T08:00:50;13.20;99.90
42031;DHT22;27709;52.036;5.906;2023-04-25T08:03:16;13.20;99.90
42031;DHT22;27709;52.036;5.906;2023-04-25T08:05:41;13.20;99.90
42031;DHT22;27709;52.036;5.906;2023-04-25T08:08:07;13.70;99.90
42031;DHT22;27709;52.036;5.906;2023-04-25T08:10:32;14.50;99.70
42031;DHT22;27709;52.036;5.906;2023-04-25T08:12:58;15.30;98.70
42031;DHT22;27709;52.036;5.906;2023-04-25T08:15:24;15.90;98.20
42031;DHT22;27709;52.036;5.906;2023-04-25T08:17:50;16.60;97.40
42031;DHT22;27709;52.036;5.906;2023-04-25T08:20:16;17.30;95.80
42031;DHT22;27709;52.036;5.906;2023-04-25T08:22:41;17.70;93.00
42031;DHT22;27709;52.036;5.906;2023-04-25T08:25:07;17.80;92.60
42031;DHT22;27709;52.036;5.906;2023-04-25T08:27:32;17.60;92.20
42031;DHT22;27709;52.036;5.906;2023-04-25T08:29:58;17.10;91.20
42031;DHT22;27709;52.036;5.906;2023-04-25T08:32:23;16.60;91.60
42031;DHT22;27709;52.036;5.906;2023-04-25T08:34:49;16.00;91.40
42031;DHT22;27709;52.036;5.906;2023-04-25T08:37:16;15.30;91.60
42031;DHT22;27709;52.036;5.906;2023-04-25T08:39:41;14.80;92.70
42031;DHT22;27709;52.036;5.906;2023-04-25T08:42:07;14.30;92.80
42031;DHT22;27709;52.036;5.906;2023-04-25T08:44:33;13.90;93.80
42031;DHT22;27709;52.036;5.906;2023-04-25T08:46:58;13.50;94.10
42031;DHT22;27709;52.036;5.906;2023-04-25T08:49:24;13.20;94.60
42031;DHT22;27709;52.036;5.906;2023-04-25T08:51:50;12.90;96.10
42031;DHT22;27709;52.036;5.906;2023-04-25T08:54:17;12.70;97.20
42031;DHT22;27709;52.036;5.906;2023-04-25T08:56:47;12.60;97.40
42031;DHT22;27709;52.036;5.906;2023-04-25T08:59:13;12.50;98.00
42031;DHT22;27709;52.036;5.906;2023-04-25T09:01:38;12.50;98.60
42031;DHT22;27709;52.036;5.906;2023-04-25T09:04:04;12.70;99.10
42031;DHT22;27709;52.036;5.906;2023-04-25T09:06:29;12.90;99.60
42031;DHT22;27709;52.036;5.906;2023-04-25T09:09:05;13.00;98.40
42031;DHT22;27709;52.036;5.906;2023-04-25T09:11:32;13.10;99.30
42031;DHT22;27709;52.036;5.906;2023-04-25T09:14:16;13.10;98.70
42031;DHT22;27709;52.036;5.906;2023-04-25T09:19:31;13.10;98.60
42031;DHT22;27709;52.036;5.906;2023-04-25T09:21:57;13.10;98.90
42031;DHT22;27709;52.036;5.906;2023-04-25T09:24:33;13.40;99.90
42031;DHT22;27709;52.036;5.906;2023-04-25T09:26:59;13.90;99.30
42031;DHT22;27709;52.036;5.906;2023-04-25T09:29:31;14.60;97.90
42031;DHT22;27709;52.036;5.906;2023-04-25T09:32:10;15.40;97.20
42031;DHT22;27709;52.036;5.906;2023-04-25T09:34:40;16.10;96.70
42031;DHT22;27709;52.036;5.906;2023-04-25T09:37:08;16.80;95.10
42031;DHT22;27709;52.036;5.906;2023-04-25T09:39:33;16.90;92.60
42031;DHT22;27709;52.036;5.906;2023-04-25T09:42:00;16.50;92.40
42031;DHT22;27709;52.036;5.906;2023-04-25T09:44:25;16.00;91.50
42031;DHT22;27709;52.036;5.906;2023-04-25T09:46:52;16.00;93.90
42031;DHT22;27709;52.036;5.906;2023-04-25T09:49:21;16.40;93.20
42031;DHT22;27709;52.036;5.906;2023-04-25T09:51:53;16.90;92.60
42031;DHT22;27709;52.036;5.906;2023-04-25T09:54:19;17.40;89.20
42031;DHT22;27709;52.036;5.906;2023-04-25T09:56:45;17.50;87.90
42031;DHT22;27709;52.036;5.906;2023-04-25T09:59:12;17.60;85.90
42031;DHT22;27709;52.036;5.906;2023-04-25T10:01:39;17.50;84.50
42031;DHT22;27709;52.036;5.906;2023-04-25T10:04:05;17.50;84.50
42031;DHT22;27709;52.036;5.906;2023-04-25T10:06:31;17.70;82.50
42031;DHT22;27709;52.036;5.906;2023-04-25T10:08:58;17.90;82.30
42031;DHT22;27709;52.036;5.906;2023-04-25T10:11:24;17.80;78.60
42031;DHT22;27709;52.036;5.906;2023-04-25T10:13:49;17.40;78.30
42031;DHT22;27709;52.036;5.906;2023-04-25T10:16:15;16.80;77.90
42031;DHT22;27709;52.036;5.906;2023-04-25T10:18:41;16.40;79.10
42031;DHT22;27709;52.036;5.906;2023-04-25T10:21:06;16.40;84.30
42031;DHT22;27709;52.036;5.906;2023-04-25T10:23:32;16.50;82.70
42031;DHT22;27709;52.036;5.906;2023-04-25T10:25:59;16.40;82.70
42031;DHT22;27709;52.036;5.906;2023-04-25T10:28:25;16.10;81.20
42031;DHT22;27709;52.036;5.906;2023-04-25T10:31:00;15.60;82.20
42031;DHT22;27709;52.036;5.906;2023-04-25T10:33:39;15.00;84.40
42031;DHT22;27709;52.036;5.906;2023-04-25T10:36:09;14.30;86.60
42031;DHT22;27709;52.036;5.906;2023-04-25T10:38:35;13.60;90.00
42031;DHT22;27709;52.036;5.906;2023-04-25T10:41:08;13.10;91.30
42031;DHT22;27709;52.036;5.906;2023-04-25T10:43:41;12.80;93.10
42031;DHT22;27709;52.036;5.906;2023-04-25T10:48:38;12.50;93.50
42031;DHT22;27709;52.036;5.906;2023-04-25T10:53:34;12.50;95.40
42031;DHT22;27709;52.036;5.906;2023-04-25T10:56:00;12.70;95.70
42031;DHT22;27709;52.036;5.906;2023-04-25T10:58:25;13.00;95.90
42031;DHT22;27709;52.036;5.906;2023-04-25T11:00:51;13.30;95.10
42031;DHT22;27709;52.036;5.906;2023-04-25T11:03:17;13.40;93.20
42031;DHT22;27709;52.036;5.906;2023-04-25T11:05:42;13.50;93.40
42031;DHT22;27709;52.036;5.906;2023-04-25T11:08:11;13.60;94.70
42031;DHT22;27709;52.036;5.906;2023-04-25T11:10:36;13.90;93.60
42031;DHT22;27709;52.036;5.906;2023-04-25T11:13:02;14.20;94.30
42031;DHT22;27709;52.036;5.906;2023-04-25T11:15:27;14.70;92.60
42031;DHT22;27709;52.036;5.906;2023-04-25T11:17:53;15.00;93.90
42031;DHT22;27709;52.036;5.906;2023-04-25T11:20:19;15.30;93.40
42031;DHT22;27709;52.036;5.906;2023-04-25T11:22:45;15.50;91.60
42031;DHT22;27709;52.036;5.906;2023-04-25T11:25:12;15.70;92.00
42031;DHT22;27709;52.036;5.906;2023-04-25T11:27:51;15.90;92.10
42031;DHT22;27709;52.036;5.906;2023-04-25T11:30:17;16.10;90.70
42031;DHT22;27709;52.036;5.906;2023-04-25T11:32:42;16.40;87.00
42031;DHT22;27709;52.036;5.906;2023-04-25T11:35:08;16.50;86.70
42031;DHT22;27709;52.036;5.906;2023-04-25T11:37:34;16.70;85.70
42031;DHT22;27709;52.036;5.906;2023-04-25T11:40:00;16.70;81.10
42031;DHT22;27709;52.036;5.906;2023-04-25T11:42:25;16.60;80.10
42031;DHT22;27709;52.036;5.906;2023-04-25T11:44:51;16.60;82.00
42031;DHT22;27709;52.036;5.906;2023-04-25T11:47:17;16.70;82.90
42031;DHT22;27709;52.036;5.906;2023-04-25T11:49:42;16.80;84.30
42031;DHT22;27709;52.036;5.906;2023-04-25T11:52:08;17.00;81.80
42031;DHT22;27709;52.036;5.906;2023-04-25T11:54:37;17.10;82.70
42031;DHT22;27709;52.036;5.906;2023-04-25T11:57:02;17.10;80.50
42031;DHT22;27709;52.036;5.906;2023-04-25T11:59:28;17.30;83.30
42031;DHT22;27709;52.036;5.906;2023-04-25T12:01:53;17.40;81.70
42031;DHT22;27709;52.036;5.906;2023-04-25T12:04:22;17.40;80.60
42031;DHT22;27709;52.036;5.906;2023-04-25T12:06:49;17.20;78.00
42031;DHT22;27709;52.036;5.906;2023-04-25T12:09:17;16.60;79.10
42031;DHT22;27709;52.036;5.906;2023-04-25T12:11:44;15.90;81.20
42031;DHT22;27709;52.036;5.906;2023-04-25T12:14:10;15.20;84.50
42031;DHT22;27709;52.036;5.906;2023-04-25T12:16:43;14.60;87.30
42031;DHT22;27709;52.036;5.906;2023-04-25T12:19:09;14.10;88.70
42031;DHT22;27709;52.036;5.906;2023-04-25T12:21:35;13.70;89.60
42031;DHT22;27709;52.036;5.906;2023-04-25T12:24:10;13.30;90.30
42031;DHT22;27709;52.036;5.906;2023-04-25T12:26:46;13.00;91.20
42031;DHT22;27709;52.036;5.906;2023-04-25T12:29:15;12.90;92.00
42031;DHT22;27709;52.036;5.906;2023-04-25T12:31:40;13.00;91.90
42031;DHT22;27709;52.036;5.906;2023-04-25T12:34:06;13.00;91.90
42031;DHT22;27709;52.036;5.906;2023-04-25T12:36:32;13.10;92.40
42031;DHT22;27709;52.036;5.906;2023-04-25T12:38:57;13.20;92.30
42031;DHT22;27709;52.036;5.906;2023-04-25T12:41:29;13.40;92.40
42031;DHT22;27709;52.036;5.906;2023-04-25T12:43:54;13.50;92.10
42031;DHT22;27709;52.036;5.906;2023-04-25T12:46:20;13.70;92.40
42031;DHT22;27709;52.036;5.906;2023-04-25T12:48:46;14.00;92.30
42031;DHT22;27709;52.036;5.906;2023-04-25T12:51:11;14.30;92.20
42031;DHT22;27709;52.036;5.906;2023-04-25T12:53:37;14.40;91.00
42031;DHT22;27709;52.036;5.906;2023-04-25T12:56:04;14.50;91.20
42031;DHT22;27709;52.036;5.906;2023-04-25T12:58:29;14.50;90.60
42031;DHT22;27709;52.036;5.906;2023-04-25T13:00:55;14.60;90.90
42031;DHT22;27709;52.036;5.906;2023-04-25T13:03:20;14.60;90.90
42031;DHT22;27709;52.036;5.906;2023-04-25T13:05:46;14.60;90.50
42031;DHT22;27709;52.036;5.906;2023-04-25T13:08:12;14.60;90.00
42031;DHT22;27709;52.036;5.906;2023-04-25T13:10:37;14.50;89.80
42031;DHT22;27709;52.036;5.906;2023-04-25T13:13:04;14.40;88.90
42031;DHT22;27709;52.036;5.906;2023-04-25T13:15:29;14.20;89.20
42031;DHT22;27709;52.036;5.906;2023-04-25T13:17:55;14.00;89.60
42031;DHT22;27709;52.036;5.906;2023-04-25T13:20:21;13.90;88.40
42031;DHT22;27709;52.036;5.906;2023-04-25T13:22:48;13.90;87.20
42031;DHT22;27709;52.036;5.906;2023-04-25T13:25:14;14.10;87.10
42031;DHT22;27709;52.036;5.906;2023-04-25T13:27:39;14.30;86.80
42031;DHT22;27709;52.036;5.906;2023-04-25T13:30:06;14.50;85.90
42031;DHT22;27709;52.036;5.906;2023-04-25T13:32:37;14.70;85.70
42031;DHT22;27709;52.036;5.906;2023-04-25T13:35:06;14.60;86.10
42031;DHT22;27709;52.036;5.906;2023-04-25T13:37:32;14.40;86.60
42031;DHT22;27709;52.036;5.906;2023-04-25T13:40:01;14.40;89.10
42031;DHT22;27709;52.036;5.906;2023-04-25T13:42:29;14.50;89.60
42031;DHT22;27709;52.036;5.906;2023-04-25T13:44:55;14.70;87.80
42031;DHT22;27709;52.036;5.906;2023-04-25T13:47:21;15.00;87.40
42031;DHT22;27709;52.036;5.906;2023-04-25T13:49:47;15.10;85.50
42031;DHT22;27709;52.036;5.906;2023-04-25T13:52:12;14.90;83.40
42031;DHT22;27709;52.036;5.906;2023-04-25T13:54:37;14.70;83.80
42031;DHT22;27709;52.036;5.906;2023-04-25T13:57:03;14.40;84.10
42031;DHT22;27709;52.036;5.906;2023-04-25T13:59:28;14.30;84.10
42031;DHT22;27709;52.036;5.906;2023-04-25T14:01:54;14.30;83.90
42031;DHT22;27709;52.036;5.906;2023-04-25T14:04:19;14.40;82.50
42031;DHT22;27709;52.036;5.906;2023-04-25T14:06:45;14.50;83.60
42031;DHT22;27709;52.036;5.906;2023-04-25T14:09:10;14.60;82.30
42031;DHT22;27709;52.036;5.906;2023-04-25T14:11:38;14.40;81.90
42031;DHT22;27709;52.036;5.906;2023-04-25T14:14:04;14.20;82.70
42031;DHT22;27709;52.036;5.906;2023-04-25T14:16:29;14.00;83.50
42031;DHT22;27709;52.036;5.906;2023-04-25T14:18:55;13.80;84.50
42031;DHT22;27709;52.036;5.906;2023-04-25T14:21:21;13.70;85.50
42031;DHT22;27709;52.036;5.906;2023-04-25T14:23:46;13.60;86.80
42031;DHT22;27709;52.036;5.906;2023-04-25T14:26:12;13.50;87.00
42031;DHT22;27709;52.036;5.906;2023-04-25T14:28:38;13.50;86.20
42031;DHT22;27709;52.036;5.906;2023-04-25T14:31:03;13.50;84.80
42031;DHT22;27709;52.036;5.906;2023-04-25T14:33:29;13.50;85.50
42031;DHT22;27709;52.036;5.906;2023-04-25T14:35:55;13.40;85.30
42031;DHT22;27709;52.036;5.906;2023-04-25T14:38:21;13.40;84.60
42031;DHT22;27709;52.036;5.906;2023-04-25T14:40:50;13.40;85.00
42031;DHT22;27709;52.036;5.906;2023-04-25T14:43:15;13.40;85.50
42031;DHT22;27709;52.036;5.906;2023-04-25T14:45:41;13.50;84.50
42031;DHT22;27709;52.036;5.906;2023-04-25T14:48:06;13.40;85.00
42031;DHT22;27709;52.036;5.906;2023-04-25T14:50:32;13.30;85.40
42031;DHT22;27709;52.036;5.906;2023-04-25T14:52:58;13.20;86.40
42031;DHT22;27709;52.036;5.906;2023-04-25T14:55:28;13.00;87.70
42031;DHT22;27709;52.036;5.906;2023-04-25T14:57:54;13.00;88.40
42031;DHT22;27709;52.036;5.906;2023-04-25T15:00:20;13.00;89.30
42031;DHT22;27709;52.036;5.906;2023-04-25T15:02:50;12.90;89.90
42031;DHT22;27709;52.036;5.906;2023-04-25T15:05:15;12.90;89.60
42031;DHT22;27709;52.036;5.906;2023-04-25T15:07:41;12.90;89.70
42031;DHT22;27709;52.036;5.906;2023-04-25T15:10:07;12.90;88.40
42031;DHT22;27709;52.036;5.906;2023-04-25T15:12:44;12.90;88.40
42031;DHT22;27709;52.036;5.906;2023-04-25T15:15:10;13.00;87.80
42031;DHT22;27709;52.036;5.906;2023-04-25T15:17:37;13.10;88.00
42031;DHT22;27709;52.036;5.906;2023-04-25T15:20:03;13.10;87.30
42031;DHT22;27709;52.036;5.906;2023-04-25T15:22:30;13.10;87.40
42031;DHT22;27709;52.036;5.906;2023-04-25T15:24:56;13.00;87.50
42031;DHT22;27709;52.036;5.906;2023-04-25T15:27:22;12.90;88.50
42031;DHT22;27709;52.036;5.906;2023-04-25T15:29:48;12.80;88.20
42031;DHT22;27709;52.036;5.906;2023-04-25T15:32:14;12.60;89.10
42031;DHT22;27709;52.036;5.906;2023-04-25T15:34:39;12.50;90.50
42031;DHT22;27709;52.036;5.906;2023-04-25T15:37:05;12.40;91.20
42031;DHT22;27709;52.036;5.906;2023-04-25T15:39:30;12.40;91.30